createdAt,value
2023-09-13T00:01:12.446Z,7.88
2023-09-13T00:03:39.967Z,7.30
2023-09-13T00:06:07.304Z,7.55
2023-09-13T00:08:34.568Z,6.95
2023-09-13T00:11:05.827Z,6.78
2023-09-13T00:13:34.556Z,6.85
2023-09-13T00:16:03.865Z,7.38
2023-09-13T00:18:31.073Z,7.70
2023-09-13T00:20:58.200Z,7.65
2023-09-13T00:23:25.589Z,8.65
2023-09-13T00:25:52.873Z,7.85
2023-09-13T00:28:20.085Z,7.55
2023-09-13T00:30:48.228Z,8.30
2023-09-13T00:33:15.527Z,8.25
2023-09-13T00:35:42.794Z,9.27
2023-09-13T00:38:10.013Z,10.73
2023-09-13T00:40:37.273Z,11.25
2023-09-13T00:43:04.748Z,11.52
2023-09-13T00:45:35.223Z,11.18
2023-09-13T00:48:03.350Z,12.43
2023-09-13T00:50:43.697Z,13.43
2023-09-13T00:53:19.986Z,12.38
2023-09-13T00:55:51.376Z,13.23
2023-09-13T00:58:22.954Z,14.00
2023-09-13T01:00:54.782Z,13.63
2023-09-13T01:03:24.326Z,13.80
2023-09-13T01:05:55.747Z,13.00
2023-09-13T01:08:23.996Z,14.20
2023-09-13T01:10:51.225Z,14.70
2023-09-13T01:13:18.517Z,13.82
2023-09-13T01:16:20.325Z,13.60
2023-09-13T01:19:06.173Z,14.48
2023-09-13T01:22:08.502Z,13.73
2023-09-13T01:25:28.542Z,13.48
2023-09-13T01:29:01.212Z,13.10
2023-09-13T01:31:29.475Z,14.02
2023-09-13T01:33:56.903Z,15.07
2023-09-13T01:36:25.533Z,14.65
2023-09-13T01:38:52.777Z,16.30
2023-09-13T01:41:37.266Z,17.08
2023-09-13T01:44:07.708Z,17.85
2023-09-13T01:46:43.865Z,16.70
2023-09-13T01:49:14.566Z,16.90
2023-09-13T01:51:42.975Z,15.60
2023-09-13T01:54:11.525Z,15.82
2023-09-13T01:56:38.857Z,16.50
2023-09-13T01:59:06.029Z,16.90
2023-09-13T02:01:33.502Z,17.80
2023-09-13T02:04:00.786Z,16.80
2023-09-13T02:06:28.195Z,17.02
2023-09-13T02:08:55.379Z,19.55
2023-09-13T02:11:22.575Z,17.92
2023-09-13T02:13:51.809Z,19.50
2023-09-13T02:16:22.761Z,19.40
2023-09-13T02:18:50.192Z,19.40
2023-09-13T02:21:17.681Z,17.88
2023-09-13T02:23:46.163Z,16.83
2023-09-13T02:26:25.178Z,17.05
2023-09-13T02:28:54.563Z,17.02
2023-09-13T02:31:29.304Z,16.60
2023-09-13T02:33:56.861Z,17.80
2023-09-13T02:36:24.318Z,16.63
2023-09-13T02:38:53.898Z,16.70
2023-09-13T02:41:21.224Z,17.15
2023-09-13T02:43:48.448Z,18.23
2023-09-13T02:46:16.368Z,18.02
2023-09-13T02:48:43.850Z,18.35
2023-09-13T02:51:17.098Z,16.40
2023-09-13T02:53:44.687Z,17.05
2023-09-13T02:56:12.672Z,18.88
2023-09-13T02:58:39.943Z,17.80
2023-09-13T03:01:12.668Z,18.10
2023-09-13T03:03:42.929Z,17.63
2023-09-13T03:06:15.026Z,19.52
2023-09-13T03:08:44.538Z,18.02
2023-09-13T03:11:16.800Z,18.77
2023-09-13T03:13:46.006Z,17.10
2023-09-13T03:16:19.725Z,17.77
2023-09-13T03:18:51.365Z,17.67
2023-09-13T03:21:22.955Z,19.27
2023-09-13T03:23:50.939Z,16.13
2023-09-13T03:26:27.827Z,16.30
2023-09-13T03:28:57.696Z,16.60
2023-09-13T03:31:28.292Z,17.90
2023-09-13T03:34:00.235Z,16.60
2023-09-13T03:36:31.523Z,15.68
2023-09-13T03:39:00.989Z,18.13
2023-09-13T03:41:31.716Z,17.02
2023-09-13T03:43:59.089Z,16.05
2023-09-13T03:46:28.663Z,16.10
2023-09-13T03:48:57.927Z,15.38
2023-09-13T03:51:25.390Z,16.20
2023-09-13T03:53:52.789Z,16.33
2023-09-13T03:56:20.039Z,16.20
2023-09-13T03:58:48.066Z,16.50
2023-09-13T04:01:15.587Z,16.15
2023-09-13T04:03:43.500Z,15.55
2023-09-13T04:06:11.882Z,14.80
2023-09-13T04:08:39.174Z,15.98
2023-09-13T04:11:06.747Z,15.27
2023-09-13T04:13:34.108Z,14.32
2023-09-13T04:16:06.666Z,15.43
2023-09-13T04:18:34.410Z,14.43
2023-09-13T04:21:01.737Z,14.95
2023-09-13T04:23:29.841Z,15.15
2023-09-13T04:25:58.089Z,14.00
2023-09-13T04:28:25.834Z,15.85
2023-09-13T04:30:53.456Z,15.55
2023-09-13T04:33:49.879Z,15.15
2023-09-13T04:36:20.107Z,15.07
2023-09-13T04:38:49.414Z,16.48
2023-09-13T04:41:18.188Z,16.85
2023-09-13T04:43:46.332Z,17.40
2023-09-13T04:46:15.686Z,17.40
2023-09-13T04:48:43.020Z,16.58
2023-09-13T04:51:12.094Z,16.65
2023-09-13T04:53:40.679Z,16.33
2023-09-13T04:56:10.289Z,16.88
2023-09-13T04:58:44.238Z,16.48
2023-09-13T05:01:11.672Z,16.75
2023-09-13T05:03:39.092Z,16.80
2023-09-13T05:06:08.980Z,17.45
2023-09-13T05:08:39.072Z,15.88
2023-09-13T05:11:06.725Z,17.05
2023-09-13T05:13:34.278Z,15.95
2023-09-13T05:16:01.631Z,15.77
2023-09-13T05:18:28.832Z,15.73
2023-09-13T05:20:56.086Z,15.98
2023-09-13T05:23:23.511Z,15.93
2023-09-13T05:25:50.878Z,15.50
2023-09-13T05:28:18.443Z,14.85
2023-09-13T05:30:52.442Z,16.77
2023-09-13T05:33:19.899Z,14.13
2023-09-13T05:35:47.107Z,15.48
2023-09-13T05:38:14.267Z,14.38
2023-09-13T05:40:41.494Z,12.20
2023-09-13T05:43:08.851Z,12.10
2023-09-13T05:45:36.204Z,10.68
2023-09-13T05:48:04.252Z,10.55
2023-09-13T05:50:31.557Z,9.75
2023-09-13T05:52:59.255Z,9.70
2023-09-13T05:55:26.634Z,9.40
2023-09-13T05:57:53.875Z,10.15
2023-09-13T06:00:21.257Z,9.02
2023-09-13T06:02:48.427Z,8.23
2023-09-13T06:05:15.670Z,8.98
2023-09-13T06:07:43.498Z,8.65
2023-09-13T06:10:12.397Z,9.35
2023-09-13T06:12:39.824Z,8.95
2023-09-13T06:15:09.148Z,8.70
2023-09-13T06:17:38.218Z,9.93
2023-09-13T06:20:07.024Z,9.93
2023-09-13T06:22:34.300Z,9.60
2023-09-13T06:25:04.512Z,9.02
2023-09-13T06:27:35.070Z,9.95
2023-09-13T06:30:02.616Z,9.95
2023-09-13T06:32:40.556Z,9.35
2023-09-13T06:35:16.137Z,9.75
2023-09-13T06:37:47.024Z,9.85
2023-09-13T06:40:16.878Z,9.48
2023-09-13T06:42:59.764Z,9.57
2023-09-13T06:45:28.635Z,8.85
2023-09-13T06:47:59.093Z,9.93
2023-09-13T06:50:52.910Z,9.70
2023-09-13T06:55:45.372Z,9.50
2023-09-13T07:00:48.708Z,9.82
2023-09-13T07:03:26.864Z,8.80
2023-09-13T07:05:54.628Z,9.18
2023-09-13T07:08:21.947Z,7.50
2023-09-13T07:10:49.295Z,6.40
2023-09-13T07:13:16.512Z,5.30
2023-09-13T07:15:43.696Z,4.65
2023-09-13T07:18:10.905Z,4.20
2023-09-13T07:20:38.212Z,4.90
2023-09-13T07:23:05.674Z,4.30
2023-09-13T07:25:32.984Z,4.43
2023-09-13T07:28:01.317Z,4.22
2023-09-13T07:30:28.919Z,4.78
2023-09-13T07:32:56.087Z,4.40
2023-09-13T07:35:24.570Z,4.22
2023-09-13T07:37:52.122Z,3.90
2023-09-13T07:40:19.454Z,3.58
2023-09-13T07:42:46.675Z,3.70
2023-09-13T07:45:13.892Z,3.60
2023-09-13T07:47:41.216Z,3.33
2023-09-13T07:50:39.894Z,3.10
2023-09-13T07:53:08.502Z,3.42
2023-09-13T07:55:36.637Z,3.58
2023-09-13T07:58:06.491Z,3.40
2023-09-13T08:00:35.229Z,3.67
2023-09-13T08:03:05.296Z,3.60
2023-09-13T08:05:32.826Z,3.47
2023-09-13T08:08:00.720Z,2.90
2023-09-13T08:10:28.275Z,3.15
2023-09-13T08:12:55.797Z,3.28
2023-09-13T08:15:30.786Z,3.28
2023-09-13T08:18:10.718Z,3.08
2023-09-13T08:20:38.079Z,3.13
2023-09-13T08:23:05.421Z,3.38
2023-09-13T08:25:32.927Z,2.95
2023-09-13T08:28:00.335Z,3.20
2023-09-13T08:30:27.581Z,3.20
2023-09-13T08:32:54.799Z,2.83
2023-09-13T08:35:22.081Z,3.10
2023-09-13T08:37:50.207Z,2.50
2023-09-13T08:40:17.890Z,2.72
2023-09-13T08:42:46.764Z,2.72
2023-09-13T08:45:15.190Z,2.40
2023-09-13T08:47:58.045Z,2.78
2023-09-13T08:50:30.004Z,2.78
2023-09-13T08:53:03.822Z,3.08
2023-09-13T08:55:35.119Z,2.92
2023-09-13T08:58:04.135Z,2.85
2023-09-13T09:00:41.285Z,3.33
2023-09-13T09:03:13.981Z,3.13
2023-09-13T09:05:42.700Z,3.10
2023-09-13T09:08:11.406Z,3.35
2023-09-13T09:10:39.059Z,3.45
2023-09-13T09:13:11.447Z,3.20
2023-09-13T09:15:41.268Z,2.92
2023-09-13T09:18:13.294Z,3.00
2023-09-13T09:20:42.709Z,3.10
2023-09-13T09:23:10.958Z,3.00
2023-09-13T09:25:41.132Z,2.92
2023-09-13T09:28:08.752Z,2.70
2023-09-13T09:30:36.347Z,3.00
2023-09-13T09:33:05.990Z,2.70
2023-09-13T09:35:36.204Z,3.10
2023-09-13T09:38:07.739Z,2.55
2023-09-13T09:40:39.543Z,3.40
2023-09-13T09:43:09.246Z,3.35
2023-09-13T09:45:36.538Z,3.35
2023-09-13T09:48:04.482Z,3.17
2023-09-13T09:50:34.760Z,3.38
2023-09-13T09:53:10.835Z,2.90
2023-09-13T09:55:38.919Z,3.30
2023-09-13T09:58:06.533Z,3.38
2023-09-13T10:00:53.626Z,3.35
2023-09-13T10:03:23.899Z,3.30
2023-09-13T10:06:07.750Z,3.53
2023-09-13T10:08:48.629Z,3.40
2023-09-13T10:11:21.091Z,3.10
2023-09-13T10:13:49.345Z,3.35
2023-09-13T10:16:19.014Z,3.80
2023-09-13T10:18:51.856Z,3.60
2023-09-13T10:21:27.877Z,3.50
2023-09-13T10:24:05.579Z,2.92
2023-09-13T10:26:34.123Z,3.05
2023-09-13T10:29:19.002Z,3.28
2023-09-13T10:31:52.966Z,2.95
2023-09-13T10:34:28.057Z,2.75
2023-09-13T10:37:21.127Z,2.72
2023-09-13T10:39:58.779Z,3.17
2023-09-13T10:42:27.314Z,3.10
2023-09-13T10:44:57.285Z,2.90
2023-09-13T10:47:25.453Z,2.58
2023-09-13T10:49:55.102Z,2.80
2023-09-13T10:52:22.824Z,2.30
2023-09-13T10:54:53.086Z,2.00
2023-09-13T10:57:22.921Z,2.63
2023-09-13T10:59:53.809Z,2.20
2023-09-13T11:02:24.048Z,2.45
2023-09-13T11:04:52.824Z,2.70
2023-09-13T11:07:20.295Z,2.47
2023-09-13T11:09:47.711Z,2.40
2023-09-13T11:12:14.980Z,2.50
2023-09-13T11:14:51.433Z,2.50
2023-09-13T11:17:41.509Z,2.60
2023-09-13T11:20:30.016Z,2.35
2023-09-13T11:23:33.726Z,2.50
2023-09-13T11:26:08.606Z,2.58
2023-09-13T11:28:43.438Z,2.17
2023-09-13T11:31:15.738Z,2.70
2023-09-13T11:33:59.833Z,2.25
2023-09-13T11:36:32.420Z,2.40
2023-09-13T11:39:02.929Z,2.60
2023-09-13T11:44:23.951Z,2.75
2023-09-13T11:46:58.734Z,2.50
2023-09-13T11:49:37.326Z,2.78
2023-09-13T11:52:25.418Z,2.85
2023-09-13T11:55:05.544Z,2.80
2023-09-13T11:57:58.711Z,3.40
2023-09-13T12:00:32.123Z,2.95
2023-09-13T12:03:01.327Z,3.67
2023-09-13T12:05:45.325Z,2.85
2023-09-13T12:08:30.770Z,3.60
2023-09-13T12:11:08.220Z,2.90
2023-09-13T12:16:21.951Z,2.72
2023-09-13T12:18:50.127Z,2.50
2023-09-13T12:21:18.374Z,3.60
2023-09-13T12:23:49.790Z,3.40
2023-09-13T12:26:19.116Z,2.80
2023-09-13T12:28:49.730Z,2.45
2023-09-13T12:31:18.314Z,2.90
2023-09-13T12:33:55.006Z,2.47
2023-09-13T12:36:22.839Z,2.60
2023-09-13T12:38:50.652Z,2.55
2023-09-13T12:41:22.631Z,2.85
2023-09-13T12:43:52.208Z,2.67
2023-09-13T12:46:27.133Z,2.60
2023-09-13T12:48:58.793Z,2.97
2023-09-13T12:51:33.640Z,2.35
2023-09-13T12:54:02.058Z,2.38
2023-09-13T12:56:34.512Z,2.30
2023-09-13T12:59:02.270Z,2.28
2023-09-13T13:01:36.698Z,2.55
2023-09-13T13:04:12.626Z,2.42
2023-09-13T13:07:02.599Z,2.60
2023-09-13T13:09:31.111Z,3.17
2023-09-13T13:11:58.586Z,2.80
2023-09-13T13:14:30.247Z,3.00
2023-09-13T13:17:01.236Z,2.92
2023-09-13T13:22:11.706Z,2.60
2023-09-13T13:24:40.701Z,2.90
2023-09-13T13:27:08.416Z,2.50
2023-09-13T13:29:38.166Z,2.65
2023-09-13T13:32:07.133Z,2.30
2023-09-13T13:34:34.710Z,2.78
2023-09-13T13:37:02.007Z,2.80
2023-09-13T13:39:29.717Z,2.65
2023-09-13T13:41:57.091Z,2.72
2023-09-13T13:44:24.378Z,2.80
2023-09-13T13:46:51.693Z,3.00
2023-09-13T13:49:19.912Z,2.80
2023-09-13T13:51:51.620Z,2.80
2023-09-13T13:54:20.505Z,2.80
2023-09-13T13:56:48.269Z,2.80
2023-09-13T13:59:16.361Z,2.90
2023-09-13T14:01:45.278Z,2.75
2023-09-13T14:04:12.548Z,2.80
2023-09-13T14:06:46.008Z,2.55
2023-09-13T14:09:19.886Z,2.47
2023-09-13T14:11:47.966Z,2.63
2023-09-13T14:14:19.388Z,2.67
2023-09-13T14:16:50.133Z,2.90
2023-09-13T14:19:18.070Z,2.58
2023-09-13T14:21:45.664Z,2.30
2023-09-13T14:24:13.232Z,2.42
2023-09-13T14:26:41.147Z,2.40
2023-09-13T14:29:08.845Z,2.60
2023-09-13T14:31:38.608Z,2.50
2023-09-13T14:34:07.621Z,2.22
2023-09-13T14:36:35.452Z,2.20
2023-09-13T14:39:03.015Z,2.70
2023-09-13T14:41:30.712Z,2.50
2023-09-13T14:43:57.931Z,2.33
2023-09-13T14:46:25.388Z,2.35
2023-09-13T14:48:54.158Z,2.95
2023-09-13T14:51:21.924Z,2.78
2023-09-13T14:53:49.135Z,2.45
2023-09-13T14:56:16.630Z,3.00
2023-09-13T14:58:44.177Z,3.10
2023-09-13T15:01:12.188Z,3.13
2023-09-13T15:03:39.725Z,3.22
2023-09-13T15:06:07.025Z,3.35
2023-09-13T15:08:34.216Z,3.03
2023-09-13T15:11:01.948Z,3.17
2023-09-13T15:13:29.218Z,3.10
2023-09-13T15:15:56.541Z,3.00
2023-09-13T15:18:24.054Z,2.90
2023-09-13T15:20:51.230Z,2.92
2023-09-13T15:23:18.385Z,2.92
2023-09-13T15:25:45.604Z,2.97
2023-09-13T15:28:14.123Z,3.40
2023-09-13T15:30:41.688Z,2.90
2023-09-13T15:33:09.056Z,2.72
2023-09-13T15:35:36.452Z,3.00
2023-09-13T15:38:04.049Z,3.10
2023-09-13T15:40:31.730Z,2.97
2023-09-13T15:42:59.778Z,3.00
2023-09-13T15:45:27.348Z,3.10
2023-09-13T15:47:56.890Z,3.60
2023-09-13T15:50:24.211Z,3.05
2023-09-13T15:52:52.225Z,3.50
2023-09-13T15:55:19.768Z,3.50
2023-09-13T15:57:47.100Z,3.47
2023-09-13T16:00:14.562Z,3.35
2023-09-13T16:02:41.844Z,3.35
2023-09-13T16:05:10.032Z,3.13
2023-09-13T16:07:40.094Z,3.00
2023-09-13T16:10:09.260Z,3.38
2023-09-13T16:12:36.642Z,3.60
2023-09-13T16:15:04.740Z,2.73
2023-09-13T16:17:31.937Z,3.05
2023-09-13T16:19:59.184Z,3.10
2023-09-13T16:22:26.610Z,3.25
2023-09-13T16:24:54.135Z,3.08
2023-09-13T16:27:21.406Z,2.85
2023-09-13T16:29:48.662Z,3.30
2023-09-13T16:32:18.709Z,3.13
2023-09-13T16:34:46.022Z,3.67
2023-09-13T16:37:13.355Z,3.35
2023-09-13T16:39:41.800Z,3.20
2023-09-13T16:42:09.437Z,2.90
2023-09-13T16:44:36.600Z,2.97
2023-09-13T16:47:04.116Z,3.28
2023-09-13T16:49:31.590Z,3.53
2023-09-13T16:51:59.281Z,2.92
2023-09-13T16:54:28.709Z,3.20
2023-09-13T16:56:56.051Z,3.20
2023-09-13T16:59:23.404Z,3.20
2023-09-13T17:01:50.832Z,3.22
2023-09-13T17:04:18.242Z,3.55
2023-09-13T17:06:45.708Z,2.95
2023-09-13T17:09:13.977Z,3.20
2023-09-13T17:11:41.722Z,3.78
2023-09-13T17:14:09.147Z,3.20
2023-09-13T17:16:36.379Z,3.50
2023-09-13T17:19:03.710Z,3.90
2023-09-13T17:21:31.989Z,3.63
2023-09-13T17:23:59.424Z,4.00
2023-09-13T17:26:26.606Z,3.38
2023-09-13T17:28:53.811Z,4.00
2023-09-13T17:31:21.560Z,4.00
2023-09-13T17:33:48.924Z,4.25
2023-09-13T17:36:24.800Z,3.70
2023-09-13T17:39:00.004Z,3.67
2023-09-13T17:41:27.231Z,3.90
2023-09-13T17:43:54.415Z,3.80
2023-09-13T17:46:21.842Z,4.20
2023-09-13T17:48:49.157Z,4.20
2023-09-13T17:51:16.601Z,4.25
2023-09-13T17:53:43.980Z,3.50
2023-09-13T17:56:12.242Z,3.83
2023-09-13T17:58:39.572Z,3.83
2023-09-13T18:01:06.815Z,3.92
2023-09-13T18:03:35.371Z,4.00
2023-09-13T18:06:04.305Z,4.55
2023-09-13T18:08:31.853Z,4.00
2023-09-13T18:11:00.792Z,4.35
2023-09-13T18:13:28.093Z,4.95
2023-09-13T18:15:59.082Z,4.55
2023-09-13T18:18:29.642Z,4.65
2023-09-13T18:20:57.917Z,4.50
2023-09-13T18:23:25.289Z,4.35
2023-09-13T18:25:52.696Z,4.80
2023-09-13T18:28:19.904Z,4.47
2023-09-13T18:30:47.436Z,4.97
2023-09-13T18:33:14.843Z,4.40
2023-09-13T18:35:42.079Z,5.15
2023-09-13T18:38:09.758Z,5.40
2023-09-13T18:40:38.529Z,5.25
2023-09-13T18:43:06.469Z,5.30
2023-09-13T18:45:38.220Z,5.35
2023-09-13T18:48:07.128Z,5.28
2023-09-13T18:50:35.777Z,4.80
2023-09-13T18:53:04.728Z,4.57
2023-09-13T18:55:32.180Z,4.53
2023-09-13T18:57:59.407Z,4.82
2023-09-13T19:00:27.564Z,5.30
2023-09-13T19:02:56.910Z,4.90
2023-09-13T19:05:26.648Z,5.10
2023-09-13T19:07:53.892Z,5.20
2023-09-13T19:10:21.289Z,5.30
2023-09-13T19:12:50.252Z,4.78
2023-09-13T19:15:17.912Z,4.82
2023-09-13T19:17:45.172Z,5.30
2023-09-13T19:20:12.533Z,5.47
2023-09-13T19:22:39.721Z,4.65
2023-09-13T19:25:07.940Z,5.13
2023-09-13T19:27:35.137Z,4.72
2023-09-13T19:30:02.301Z,4.85
2023-09-13T19:32:29.601Z,5.10
2023-09-13T19:34:56.872Z,5.03
2023-09-13T19:37:24.412Z,5.00
2023-09-13T19:39:51.677Z,5.35
2023-09-13T19:42:18.938Z,5.03
2023-09-13T19:44:46.219Z,4.70
2023-09-13T19:47:13.989Z,4.82
2023-09-13T19:49:41.315Z,4.88
2023-09-13T19:52:08.485Z,4.55
2023-09-13T19:54:38.669Z,4.70
2023-09-13T19:57:08.272Z,4.75
2023-09-13T19:59:38.538Z,4.60
2023-09-13T20:02:07.244Z,4.65
2023-09-13T20:04:34.527Z,5.18
2023-09-13T20:07:01.720Z,4.95
2023-09-13T20:09:30.804Z,4.93
2023-09-13T20:12:05.130Z,5.32
2023-09-13T20:14:32.433Z,4.80
2023-09-13T20:16:59.997Z,5.53
2023-09-13T20:19:27.249Z,5.40
2023-09-13T20:21:54.479Z,4.97
2023-09-13T20:24:21.786Z,5.40
2023-09-13T20:26:51.031Z,5.28
2023-09-13T20:29:18.230Z,5.38
2023-09-13T20:31:45.445Z,5.22
2023-09-13T20:34:12.923Z,5.05
2023-09-13T20:36:40.096Z,5.20
2023-09-13T20:39:07.410Z,4.93
2023-09-13T20:41:35.915Z,5.80
2023-09-13T20:44:04.049Z,5.78
2023-09-13T20:46:35.104Z,5.22
2023-09-13T20:49:04.810Z,5.30
2023-09-13T20:51:32.066Z,5.93
2023-09-13T20:53:59.285Z,5.65
2023-09-13T20:56:26.750Z,5.70
2023-09-13T20:58:54.246Z,5.35
2023-09-13T21:01:21.601Z,5.40
2023-09-13T21:03:49.740Z,4.80
2023-09-13T21:06:17.199Z,5.55
2023-09-13T21:08:44.837Z,6.07
2023-09-13T21:11:12.883Z,5.85
2023-09-13T21:13:40.181Z,5.82
2023-09-13T21:16:09.232Z,5.90
2023-09-13T21:18:37.000Z,5.72
2023-09-13T21:21:04.660Z,6.03
2023-09-13T21:23:31.886Z,5.80
2023-09-13T21:25:59.101Z,6.50
2023-09-13T21:28:26.328Z,6.05
2023-09-13T21:30:57.961Z,6.22
2023-09-13T21:33:25.368Z,6.30
2023-09-13T21:36:00.662Z,6.18
2023-09-13T21:38:28.569Z,6.27
2023-09-13T21:40:56.097Z,6.20
2023-09-13T21:43:23.769Z,6.35
2023-09-13T21:45:51.665Z,6.00
2023-09-13T21:48:19.049Z,6.03
2023-09-13T21:50:48.324Z,6.93
2023-09-13T21:53:17.130Z,6.70
2023-09-13T21:55:45.835Z,6.32
2023-09-13T21:58:20.777Z,6.00
2023-09-13T22:00:50.657Z,6.00
2023-09-13T22:03:18.245Z,6.03
2023-09-13T22:05:45.561Z,6.53
2023-09-13T22:08:12.948Z,6.47
2023-09-13T22:10:40.200Z,6.65
2023-09-13T22:13:07.654Z,6.30
2023-09-13T22:15:35.114Z,6.95
2023-09-13T22:18:02.444Z,6.78
2023-09-13T22:20:29.732Z,6.88
2023-09-13T22:22:57.102Z,6.50
2023-09-13T22:25:24.389Z,6.53
2023-09-13T22:27:51.702Z,6.85
2023-09-13T22:30:19.214Z,6.80
2023-09-13T22:32:46.626Z,6.93
2023-09-13T22:35:14.073Z,6.60
2023-09-13T22:37:41.631Z,6.90
2023-09-13T22:40:10.994Z,6.97
2023-09-13T22:42:38.338Z,6.82
2023-09-13T22:45:06.338Z,6.57
2023-09-13T22:47:33.664Z,7.03
2023-09-13T22:50:00.968Z,6.90
2023-09-13T22:52:28.259Z,7.18
2023-09-13T22:54:56.583Z,7.25
2023-09-13T22:57:23.966Z,6.95
2023-09-13T22:59:51.349Z,7.03
2023-09-13T23:02:19.145Z,6.70
2023-09-13T23:04:48.386Z,5.68
2023-09-13T23:07:16.489Z,4.78
2023-09-13T23:09:44.561Z,4.40
2023-09-13T23:12:12.050Z,4.85
2023-09-13T23:14:39.189Z,4.13
2023-09-13T23:17:07.562Z,4.68
2023-09-13T23:19:37.871Z,4.10
2023-09-13T23:22:05.225Z,4.57
2023-09-13T23:24:36.089Z,4.20
2023-09-13T23:27:03.724Z,4.20
2023-09-13T23:29:31.062Z,4.07
2023-09-13T23:31:59.452Z,4.30
2023-09-13T23:34:26.589Z,4.15
2023-09-13T23:36:53.833Z,4.35
2023-09-13T23:39:21.074Z,4.38
2023-09-13T23:41:48.420Z,4.30
2023-09-13T23:44:15.767Z,4.10
2023-09-13T23:46:43.411Z,4.60
2023-09-13T23:49:10.827Z,3.88
2023-09-13T23:51:38.082Z,4.63
2023-09-13T23:54:05.397Z,4.70
2023-09-13T23:56:32.764Z,4.57
2023-09-13T23:58:59.980Z,4.50
